createdAt,value
2018-11-04T00:01:16.037Z,28.37
2018-11-04T00:03:45.021Z,27.97
2018-11-04T00:06:13.380Z,26.13
2018-11-04T00:08:41.732Z,30.00
2018-11-04T00:11:11.052Z,25.30
2018-11-04T00:13:39.467Z,27.77
2018-11-04T00:16:08.250Z,27.47
2018-11-04T00:18:38.713Z,28.73
2018-11-04T00:21:07.241Z,26.50
2018-11-04T00:23:35.931Z,27.53
2018-11-04T00:26:04.362Z,25.63
2018-11-04T00:28:34.709Z,28.67
2018-11-04T00:31:02.970Z,26.03
2018-11-04T00:33:32.962Z,24.10
2018-11-04T00:36:01.474Z,24.23
2018-11-04T00:38:29.849Z,24.90
2018-11-04T00:40:58.375Z,24.33
2018-11-04T00:43:27.518Z,23.20
2018-11-04T00:45:55.674Z,23.40
2018-11-04T00:48:25.282Z,22.93
2018-11-04T00:50:53.515Z,21.97
2018-11-04T00:53:22.335Z,24.00
2018-11-04T00:55:55.349Z,24.60
2018-11-04T00:58:24.676Z,21.97
2018-11-04T01:00:53.259Z,22.60
2018-11-04T01:03:23.266Z,24.10
2018-11-04T01:05:51.641Z,19.27
2018-11-04T01:08:20.549Z,23.90
2018-11-04T01:10:48.644Z,24.63
2018-11-04T01:13:17.000Z,24.30
2018-11-04T01:15:45.329Z,23.70
2018-11-04T01:18:13.664Z,22.97
2018-11-04T01:20:41.755Z,24.27
2018-11-04T01:23:10.334Z,22.50
2018-11-04T01:25:38.674Z,23.67
2018-11-04T01:28:09.892Z,24.70
2018-11-04T01:30:38.331Z,24.60
2018-11-04T01:33:10.047Z,23.43
2018-11-04T01:35:38.442Z,24.40
2018-11-04T01:38:11.755Z,21.97
2018-11-04T01:40:40.331Z,25.20
2018-11-04T01:43:09.347Z,23.57
2018-11-04T01:45:39.148Z,24.73
2018-11-04T01:48:07.882Z,25.57
2018-11-04T01:50:36.696Z,26.00
2018-11-04T01:53:05.235Z,26.47
2018-11-04T01:55:33.538Z,29.20
2018-11-04T01:58:01.692Z,27.00
2018-11-04T02:00:29.996Z,26.50
2018-11-04T02:02:58.345Z,26.43
2018-11-04T02:05:26.447Z,24.37
2018-11-04T02:07:54.785Z,23.67
2018-11-04T02:10:23.010Z,25.80
2018-11-04T02:12:51.251Z,27.53
2018-11-04T02:15:19.565Z,25.13
2018-11-04T02:17:47.767Z,25.73
2018-11-04T02:20:15.913Z,27.67
2018-11-04T02:22:44.274Z,26.63
2018-11-04T02:25:13.822Z,25.97
2018-11-04T02:27:42.860Z,25.40
2018-11-04T02:30:13.572Z,23.87
2018-11-04T02:32:42.367Z,29.97
2018-11-04T02:35:10.791Z,24.60
2018-11-04T02:37:39.342Z,25.77
2018-11-04T02:40:07.498Z,24.07
2018-11-04T02:42:35.767Z,22.87
2018-11-04T02:45:04.136Z,25.03
2018-11-04T02:47:32.289Z,24.93
2018-11-04T02:50:01.184Z,24.00
2018-11-04T02:52:29.318Z,26.27
2018-11-04T02:54:57.418Z,21.57
2018-11-04T02:57:25.422Z,23.83
2018-11-04T02:59:53.476Z,23.40
2018-11-04T03:02:21.581Z,25.57
2018-11-04T03:04:49.717Z,25.00
2018-11-04T03:07:18.063Z,24.27
2018-11-04T03:09:46.113Z,22.63
2018-11-04T03:12:14.170Z,24.87
2018-11-04T03:14:42.348Z,26.03
2018-11-04T03:17:10.477Z,25.97
2018-11-04T03:19:38.762Z,25.70
2018-11-04T03:22:07.573Z,24.53
2018-11-04T03:24:35.792Z,26.17
2018-11-04T03:27:03.998Z,25.13
2018-11-04T03:29:32.025Z,25.87
2018-11-04T03:32:00.308Z,24.97
2018-11-04T03:34:28.417Z,25.63
2018-11-04T03:36:56.463Z,27.33
2018-11-04T03:39:24.581Z,25.30
2018-11-04T03:41:52.756Z,25.93
2018-11-04T03:44:20.789Z,27.07
2018-11-04T03:46:48.828Z,27.33
2018-11-04T03:49:16.908Z,26.43
2018-11-04T03:51:45.011Z,26.50
2018-11-04T03:54:13.322Z,24.40
2018-11-04T03:56:41.449Z,23.23
2018-11-04T03:59:09.568Z,24.47
2018-11-04T04:01:37.788Z,26.00
2018-11-04T04:04:06.156Z,25.70
2018-11-04T04:06:34.287Z,28.67
2018-11-04T04:09:02.299Z,26.33
2018-11-04T04:11:30.490Z,27.20
2018-11-04T04:13:58.749Z,27.77
2018-11-04T04:16:29.034Z,23.83
2018-11-04T04:18:57.042Z,24.20
2018-11-04T04:21:25.022Z,26.37
2018-11-04T04:23:53.158Z,24.60
2018-11-04T04:26:21.173Z,23.87
2018-11-04T04:28:49.330Z,25.60
2018-11-04T04:31:17.408Z,23.90
2018-11-04T04:33:45.530Z,24.50
2018-11-04T04:36:13.594Z,26.37
2018-11-04T04:38:41.781Z,23.43
2018-11-04T04:41:09.838Z,23.90
2018-11-04T04:43:37.971Z,21.70
2018-11-04T04:46:06.370Z,24.60
2018-11-04T04:48:34.499Z,22.20
2018-11-04T04:51:02.548Z,24.10
2018-11-04T04:53:30.607Z,24.83
2018-11-04T04:55:58.756Z,21.90
2018-11-04T04:58:26.951Z,23.63
2018-11-04T05:00:55.104Z,22.60
2018-11-04T05:03:23.721Z,22.33
2018-11-04T05:05:51.935Z,22.87
2018-11-04T05:08:20.094Z,25.03
2018-11-04T05:10:48.793Z,23.37
2018-11-04T05:13:16.897Z,22.87
2018-11-04T05:15:44.962Z,24.40
2018-11-04T05:18:13.017Z,24.60
2018-11-04T05:20:41.329Z,24.50
2018-11-04T05:23:09.451Z,24.63
2018-11-04T05:25:37.554Z,22.93
2018-11-04T05:28:05.804Z,24.80
2018-11-04T05:30:33.851Z,25.87
2018-11-04T05:33:02.058Z,25.10
2018-11-04T05:35:30.130Z,24.23
2018-11-04T05:37:58.386Z,26.20
2018-11-04T05:40:26.526Z,23.80
2018-11-04T05:42:54.540Z,24.53
2018-11-04T05:45:22.594Z,25.53
2018-11-04T05:47:50.648Z,26.27
2018-11-04T05:50:18.655Z,24.50
2018-11-04T05:52:46.747Z,24.67
2018-11-04T05:55:14.897Z,23.70
2018-11-04T05:57:43.020Z,24.83
2018-11-04T06:00:11.657Z,27.47
2018-11-04T06:02:44.123Z,24.37
2018-11-04T06:05:12.179Z,26.60
2018-11-04T06:07:40.539Z,27.10
2018-11-04T06:10:08.588Z,24.13
2018-11-04T06:12:37.247Z,23.20
2018-11-04T06:15:06.022Z,26.33
2018-11-04T06:17:34.145Z,25.73
2018-11-04T06:20:02.254Z,24.37
2018-11-04T06:22:30.360Z,24.63
2018-11-04T06:24:58.610Z,24.40
2018-11-04T06:27:26.683Z,23.53
2018-11-04T06:29:54.694Z,25.00
2018-11-04T06:32:22.818Z,26.20
2018-11-04T06:34:50.811Z,27.77
2018-11-04T06:37:18.917Z,26.17
2018-11-04T06:39:46.982Z,26.37
2018-11-04T06:42:14.978Z,26.30
2018-11-04T06:44:43.026Z,27.20
2018-11-04T06:47:11.307Z,25.27
2018-11-04T06:49:39.677Z,27.57
2018-11-04T06:52:07.746Z,27.37
2018-11-04T06:54:36.009Z,26.63
2018-11-04T06:57:04.242Z,25.93
2018-11-04T06:59:32.398Z,26.10
2018-11-04T07:02:00.712Z,24.40
2018-11-04T07:04:29.723Z,24.73
2018-11-04T07:06:58.580Z,24.67
2018-11-04T07:09:26.706Z,24.70
2018-11-04T07:11:54.801Z,26.20
2018-11-04T07:14:22.897Z,25.43
2018-11-04T07:16:51.470Z,25.00
2018-11-04T07:19:19.558Z,26.27
2018-11-04T07:21:47.897Z,24.00
2018-11-04T07:24:16.546Z,25.17
2018-11-04T07:26:44.637Z,24.10
2018-11-04T07:29:13.086Z,26.70
2018-11-04T07:31:41.298Z,24.90
2018-11-04T07:34:09.611Z,25.87
2018-11-04T07:36:37.751Z,23.07
2018-11-04T07:39:07.687Z,25.93
2018-11-04T07:41:35.910Z,25.30
2018-11-04T07:44:04.126Z,27.37
2018-11-04T07:46:33.293Z,22.47
2018-11-04T07:49:01.759Z,21.10
2018-11-04T07:51:31.122Z,22.57
2018-11-04T07:54:01.245Z,21.30
2018-11-04T07:56:29.762Z,23.70
2018-11-04T07:58:57.937Z,24.53
2018-11-04T08:01:32.488Z,24.33
2018-11-04T08:04:03.296Z,23.50
2018-11-04T08:06:31.602Z,23.93
2018-11-04T08:09:01.188Z,21.67
2018-11-04T08:11:29.726Z,23.50
2018-11-04T08:13:57.865Z,23.23
2018-11-04T08:16:26.035Z,25.40
2018-11-04T08:18:55.256Z,22.17
2018-11-04T08:21:23.638Z,23.07
2018-11-04T08:23:51.926Z,21.57
2018-11-04T08:26:20.342Z,21.80
2018-11-04T08:28:48.783Z,24.77
2018-11-04T08:31:16.881Z,22.20
2018-11-04T08:33:45.219Z,24.00
2018-11-04T08:36:13.614Z,24.30
2018-11-04T08:38:42.636Z,23.97
2018-11-04T08:41:10.958Z,22.00
2018-11-04T08:43:39.292Z,22.60
2018-11-04T08:46:08.306Z,22.20
2018-11-04T08:48:37.021Z,23.60
2018-11-04T08:51:05.538Z,22.60
2018-11-04T08:53:34.071Z,23.53
2018-11-04T08:56:03.185Z,22.83
2018-11-04T08:58:31.402Z,25.10
2018-11-04T09:00:59.656Z,25.50
2018-11-04T09:03:28.296Z,22.40
2018-11-04T09:05:56.737Z,24.43
2018-11-04T09:08:25.756Z,22.77
2018-11-04T09:10:54.015Z,21.97
2018-11-04T09:13:23.005Z,26.17
2018-11-04T09:15:51.216Z,23.90
2018-11-04T09:18:28.131Z,22.90
2018-11-04T09:20:58.314Z,21.80
2018-11-04T09:23:26.546Z,19.90
2018-11-04T09:25:54.774Z,21.00
2018-11-04T09:28:22.886Z,21.33
2018-11-04T09:30:51.185Z,21.67
2018-11-04T09:33:19.532Z,23.00
2018-11-04T09:35:49.626Z,20.40
2018-11-04T09:38:17.672Z,22.17
2018-11-04T09:40:47.966Z,22.77
2018-11-04T09:43:16.566Z,20.33
2018-11-04T09:45:44.881Z,19.40
2018-11-04T09:48:13.234Z,20.87
2018-11-04T09:50:41.717Z,21.33
2018-11-04T09:53:10.192Z,22.23
2018-11-04T09:55:41.315Z,22.87
2018-11-04T09:58:09.613Z,20.00
2018-11-04T10:00:49.142Z,19.00
2018-11-04T10:03:17.429Z,19.50
2018-11-04T10:05:46.343Z,20.37
2018-11-04T10:08:14.744Z,22.40
2018-11-04T10:10:43.050Z,19.17
2018-11-04T10:13:11.677Z,22.03
2018-11-04T10:15:40.413Z,21.97
2018-11-04T10:18:09.153Z,19.73
2018-11-04T10:20:38.188Z,21.27
2018-11-04T10:23:06.353Z,18.70
2018-11-04T10:25:34.921Z,20.40
2018-11-04T10:28:03.331Z,21.87
2018-11-04T10:30:35.512Z,22.50
2018-11-04T10:33:03.780Z,19.43
2018-11-04T10:35:32.194Z,23.77
2018-11-04T10:38:00.711Z,22.53
2018-11-04T10:40:34.771Z,21.87
2018-11-04T10:43:04.746Z,22.10
2018-11-04T10:45:33.564Z,19.20
2018-11-04T10:48:02.368Z,20.07
2018-11-04T10:50:31.784Z,22.43
2018-11-04T10:53:01.104Z,24.07
2018-11-04T10:55:29.492Z,23.33
2018-11-04T11:00:38.084Z,24.00
2018-11-04T11:03:06.420Z,23.70
2018-11-04T11:05:35.262Z,24.30
2018-11-04T11:08:04.354Z,21.07
2018-11-04T11:10:32.579Z,25.10
2018-11-04T11:13:02.685Z,22.80
2018-11-04T11:15:32.131Z,23.60
2018-11-04T11:18:02.811Z,24.40
2018-11-04T11:20:36.307Z,23.10
2018-11-04T11:23:09.401Z,23.67
2018-11-04T11:25:38.442Z,22.90
2018-11-04T11:28:13.401Z,22.40
2018-11-04T11:30:47.307Z,21.90
2018-11-04T11:33:15.744Z,21.60
2018-11-04T11:35:46.194Z,20.50
2018-11-04T11:38:14.592Z,20.73
2018-11-04T11:40:50.111Z,21.90
2018-11-04T11:43:18.315Z,21.40
2018-11-04T11:45:52.224Z,20.57
2018-11-04T11:48:26.637Z,19.30
2018-11-04T11:53:28.133Z,21.23
2018-11-04T11:55:59.230Z,22.20
2018-11-04T11:58:39.079Z,20.17
2018-11-04T12:01:09.298Z,20.30
2018-11-04T12:06:19.010Z,21.73
2018-11-04T12:08:47.438Z,20.73
2018-11-04T12:11:21.220Z,20.20
2018-11-04T12:13:49.412Z,20.47
2018-11-04T12:16:22.387Z,21.83
2018-11-04T12:21:27.715Z,20.77
2018-11-04T12:23:56.229Z,18.50
2018-11-04T12:26:24.640Z,18.83
2018-11-04T12:28:53.085Z,20.07
2018-11-04T12:31:21.525Z,22.17
2018-11-04T12:36:27.774Z,20.87
2018-11-04T12:41:34.255Z,18.30
2018-11-04T12:46:41.192Z,20.40
2018-11-04T12:49:09.822Z,17.43
2018-11-04T12:51:39.447Z,16.87
2018-11-04T12:57:01.397Z,19.93
2018-11-04T12:59:30.171Z,20.43
2018-11-04T13:02:00.392Z,18.60
2018-11-04T13:04:35.390Z,18.80
2018-11-04T13:07:11.712Z,19.30
2018-11-04T13:12:15.690Z,18.27
2018-11-04T13:14:49.212Z,17.63
2018-11-04T13:17:23.699Z,15.90
2018-11-04T13:19:56.330Z,19.40
2018-11-04T13:27:40.168Z,18.17
2018-11-04T13:33:06.795Z,17.60
2018-11-04T13:38:16.134Z,15.53
2018-11-04T13:43:29.318Z,16.30
2018-11-04T13:45:57.898Z,17.00
2018-11-04T13:48:26.694Z,18.70
2018-11-04T13:51:05.831Z,18.40
2018-11-04T13:53:43.033Z,17.80
2018-11-04T14:29:24.299Z,17.50
2018-11-04T14:34:39.843Z,17.30
2018-11-04T14:39:42.204Z,18.03
2018-11-04T14:42:12.098Z,18.50
2018-11-04T14:47:23.372Z,14.37
2018-11-04T14:49:53.536Z,16.50
2018-11-04T14:52:24.946Z,18.70
2018-11-04T14:54:54.494Z,16.40
2018-11-04T14:57:25.258Z,17.43
2018-11-04T15:02:57.647Z,15.47
2018-11-04T15:05:38.250Z,16.00
2018-11-04T15:08:10.448Z,16.43
2018-11-04T15:10:45.502Z,17.10
2018-11-04T15:13:19.993Z,18.47
2018-11-04T15:15:57.586Z,19.03
2018-11-04T15:18:35.218Z,18.27
2018-11-04T15:21:08.350Z,17.90
2018-11-04T15:23:42.845Z,19.53
2018-11-04T15:26:16.397Z,16.90
2018-11-04T15:37:14.033Z,17.03
2018-11-04T15:39:42.908Z,20.07
2018-11-04T15:42:13.465Z,20.40
2018-11-04T15:44:47.527Z,17.40
2018-11-04T15:47:16.509Z,18.37
2018-11-04T15:49:46.991Z,18.67
2018-11-04T15:52:30.946Z,18.37
2018-11-04T15:54:59.636Z,16.77
2018-11-04T16:02:55.384Z,17.57
2018-11-04T16:08:01.902Z,18.17
2018-11-04T16:10:30.601Z,18.50
2018-11-04T16:13:00.577Z,17.20
2018-11-04T16:15:29.484Z,17.60
2018-11-04T16:17:58.695Z,18.80
2018-11-04T16:20:29.043Z,18.03
2018-11-04T16:23:01.255Z,18.27
2018-11-04T16:25:32.037Z,18.73
2018-11-04T16:28:01.898Z,20.03
2018-11-04T16:30:30.310Z,26.00
2018-11-04T16:33:04.916Z,17.53
2018-11-04T16:35:43.535Z,18.60
2018-11-04T16:41:01.660Z,19.37
2018-11-04T16:43:38.633Z,16.53
2018-11-04T16:46:10.724Z,18.63
2018-11-04T16:51:26.626Z,20.17
2018-11-04T16:54:04.752Z,20.57
2018-11-04T16:59:21.657Z,17.93
2018-11-04T17:01:57.589Z,18.33
2018-11-04T17:04:26.323Z,19.20
2018-11-04T17:06:55.408Z,19.40
2018-11-04T17:12:12.577Z,17.00
2018-11-04T17:23:06.574Z,18.50
2018-11-04T17:28:17.347Z,16.30
2018-11-04T17:36:21.502Z,17.63
2018-11-04T17:38:50.657Z,17.77
2018-11-04T17:41:23.762Z,14.10
2018-11-04T17:49:11.321Z,16.23
2018-11-04T17:54:31.556Z,15.27
2018-11-04T17:57:08.776Z,17.63
2018-11-04T18:03:20.265Z,19.40
2018-11-04T18:05:49.929Z,17.23
2018-11-04T18:08:27.846Z,19.50
2018-11-04T18:11:05.813Z,18.30
2018-11-04T18:13:40.958Z,17.63
2018-11-04T18:18:47.573Z,18.37
2018-11-04T18:21:21.406Z,17.33
2018-11-04T18:26:36.391Z,17.90
2018-11-04T18:29:05.371Z,16.80
2018-11-04T18:31:34.803Z,17.70
2018-11-04T18:34:10.912Z,17.33
2018-11-04T18:36:41.105Z,17.00
2018-11-04T18:39:10.558Z,17.50
2018-11-04T18:41:39.651Z,18.20
2018-11-04T18:44:08.961Z,17.63
2018-11-04T18:49:18.790Z,17.13
2018-11-04T18:51:48.204Z,17.37
2018-11-04T18:54:17.936Z,18.57
2018-11-04T18:56:47.793Z,18.17
2018-11-04T18:59:18.533Z,17.23
2018-11-04T19:01:52.180Z,17.70
2018-11-04T19:04:20.945Z,18.37
2018-11-04T19:09:23.761Z,17.77
2018-11-04T19:11:56.888Z,17.70
2018-11-04T19:17:02.555Z,21.30
2018-11-04T19:19:30.926Z,20.30
2018-11-04T19:22:00.051Z,20.97
2018-11-04T19:24:28.578Z,20.27
2018-11-04T19:26:58.740Z,21.57
2018-11-04T19:29:27.171Z,22.27
2018-11-04T19:31:55.754Z,21.00
2018-11-04T19:34:24.206Z,18.17
2018-11-04T19:36:53.151Z,19.70
2018-11-04T19:39:21.370Z,20.17
2018-11-04T19:41:50.607Z,20.07
2018-11-04T19:44:18.876Z,18.57
2018-11-04T19:46:49.022Z,18.67
2018-11-04T19:49:17.758Z,19.53
2018-11-04T19:51:50.239Z,20.77
2018-11-04T19:54:18.867Z,19.27
2018-11-04T19:56:47.220Z,20.20
2018-11-04T20:02:14.848Z,18.93
2018-11-04T20:04:43.331Z,19.70
2018-11-04T20:07:11.885Z,19.70
2018-11-04T20:09:40.713Z,19.40
2018-11-04T20:12:16.331Z,20.43
2018-11-04T20:15:15.494Z,16.53
2018-11-04T20:17:44.974Z,19.33
2018-11-04T20:20:16.141Z,18.87
2018-11-04T20:22:55.189Z,20.43
2018-11-04T20:25:29.688Z,17.37
2018-11-04T20:27:58.351Z,19.57
2018-11-04T20:30:26.771Z,22.33
2018-11-04T20:35:42.043Z,21.00
2018-11-04T20:38:10.542Z,19.50
2018-11-04T20:40:44.294Z,19.20
2018-11-04T20:43:12.569Z,19.00
2018-11-04T20:45:42.108Z,18.73
2018-11-04T20:51:02.909Z,20.13
2018-11-04T20:53:31.131Z,19.30
2018-11-04T20:56:04.610Z,20.30
2018-11-04T20:58:33.675Z,18.80
2018-11-04T21:01:02.104Z,21.97
2018-11-04T21:03:30.617Z,20.13
2018-11-04T21:05:59.622Z,19.77
2018-11-04T21:08:29.812Z,20.93
2018-11-04T21:10:58.412Z,20.50
2018-11-04T21:13:28.078Z,19.30
2018-11-04T21:15:56.556Z,19.70
2018-11-04T21:18:25.105Z,19.43
2018-11-04T21:20:58.796Z,19.63
2018-11-04T21:23:31.102Z,21.07
2018-11-04T21:26:05.470Z,19.47
2018-11-04T21:28:39.979Z,19.40
2018-11-04T21:31:08.342Z,20.10
2018-11-04T21:33:38.823Z,18.77
2018-11-04T21:36:08.034Z,21.90
2018-11-04T21:38:39.638Z,18.80
2018-11-04T21:41:07.903Z,19.10
2018-11-04T21:43:37.564Z,20.17
2018-11-04T21:46:06.156Z,17.70
2018-11-04T21:48:34.743Z,19.67
2018-11-04T21:51:03.238Z,20.07
2018-11-04T21:53:31.394Z,19.83
2018-11-04T21:56:00.398Z,17.80
2018-11-04T21:58:29.981Z,19.43
2018-11-04T22:00:58.337Z,19.77
2018-11-04T22:03:26.689Z,20.60
2018-11-04T22:05:54.948Z,20.77
2018-11-04T22:08:23.262Z,19.00
2018-11-04T22:10:54.216Z,18.90
2018-11-04T22:13:22.397Z,20.40
2018-11-04T22:15:50.871Z,18.57
2018-11-04T22:18:49.582Z,19.23
2018-11-04T22:21:18.150Z,17.70
2018-11-04T22:23:46.981Z,19.40
2018-11-04T22:26:15.156Z,18.73
2018-11-04T22:28:43.514Z,18.93
2018-11-04T22:33:44.269Z,17.93
2018-11-04T22:36:12.904Z,19.87
2018-11-04T22:38:41.658Z,18.83
2018-11-04T22:41:09.989Z,17.73
2018-11-04T22:43:38.408Z,15.63
2018-11-04T22:46:06.720Z,19.67
2018-11-04T22:48:35.056Z,19.27
2018-11-04T22:51:03.652Z,20.63
2018-11-04T22:53:32.405Z,18.57
2018-11-04T22:56:00.733Z,19.50
2018-11-04T22:58:29.778Z,18.97
2018-11-04T23:00:59.320Z,17.83
2018-11-04T23:03:32.222Z,20.17
2018-11-04T23:06:06.287Z,18.37
2018-11-04T23:08:35.019Z,18.17
2018-11-04T23:11:04.018Z,19.40
2018-11-04T23:13:32.430Z,17.67
2018-11-04T23:16:00.588Z,16.77
2018-11-04T23:18:29.279Z,17.13
2018-11-04T23:20:57.448Z,16.80
2018-11-04T23:23:26.019Z,17.27
2018-11-04T23:25:54.381Z,17.40
2018-11-04T23:28:22.525Z,17.50
2018-11-04T23:30:50.677Z,13.97
2018-11-04T23:33:18.772Z,15.70
2018-11-04T23:35:48.227Z,17.73
2018-11-04T23:38:16.517Z,17.20
2018-11-04T23:40:44.789Z,17.50
2018-11-04T23:43:13.145Z,16.30
2018-11-04T23:45:41.795Z,16.17
2018-11-04T23:48:10.193Z,16.73
2018-11-04T23:50:38.375Z,17.37
2018-11-04T23:53:07.187Z,17.60
2018-11-04T23:55:35.489Z,16.43
2018-11-04T23:58:04.286Z,17.73
